Here is the Quick Look data you requested

The Data originates at the National Weather Service, and is made available here by the UAlbany Department of Atmospheric and Environmental Sciences

Surface Observations

KPTB 151855Z AUTO 21004KT 10SM CLR 34/21 A2995 RMK AO2 T03420206=
KPTB 151915Z AUTO 22003KT 7SM CLR 34/21 A2995 RMK AO2 T03440209=
KPTB 151935Z AUTO 19004KT 10SM CLR 34/21 A2994 RMK AO2 T03390207=
KPTB 151955Z AUTO 21005KT 7SM CLR 34/20 A2994 RMK AO2 T03430204=
KPTB 152015Z AUTO 20005KT 10SM CLR 34/21 A2993 RMK AO2 T03400205=
KPTB 152035Z AUTO 20003KT 10SM CLR 34/22 A2992 RMK AO2 T03410215=
KPTB 152055Z AUTO 20005KT 10SM CLR 34/20 A2991 RMK AO2 T03400199=
KPTB 152115Z AUTO 22006KT 10SM CLR 34/21 A2990 RMK AO2 T03430206=
KPTB 152135Z AUTO 22004KT 7SM CLR 34/21 A2991 RMK AO2 T03400206=
KPTB 152155Z AUTO 22003KT 10SM CLR 34/22 A2990 RMK AO2 T03410219=
KPTB 152215Z AUTO 21003KT 10SM CLR 34/22 A2990 RMK AO2 T03360215=
KPTB 152235Z AUTO 00000KT 10SM CLR 33/22 A2990 RMK AO2 T03340220=
KPTB 152255Z AUTO 00000KT 10SM CLR 33/23 A2989 RMK AO2 T03270226=
KPTB 152315Z AUTO 00000KT 7SM CLR 32/25 A2989 RMK AO2 T03180245=
KPTB 152335Z AUTO 00000KT 10SM CLR 30/25 A2990 RMK AO2 T03030247=
KPTB 152355Z AUTO 00000KT 10SM CLR 30/25 A2990 RMK AO2 T02950248 10347 20295=
KPTB 160015Z AUTO 00000KT 7SM CLR 29/25 A2991 RMK AO2 T02880248=
KPTB 160035Z AUTO 00000KT 7SM CLR 28/25 A2991 RMK AO2 T02820248=
KPTB 160055Z AUTO 00000KT 7SM CLR 28/25 A2991 RMK AO2 T02760248=
KPTB 160115Z AUTO 00000KT 7SM CLR 28/24 A2991 RMK AO2 T02810239=
KPTB 160135Z AUTO 00000KT 10SM CLR 28/24 A2991 RMK AO2 T02750240=
KPTB 160155Z AUTO 00000KT 10SM CLR 27/24 A2992 RMK AO2 T02700240=
KPTB 160215Z AUTO 00000KT 10SM CLR 26/24 A2992 RMK AO2 T02630243=
KPTB 160235Z AUTO 00000KT 10SM CLR 26/24 A2991 RMK AO2 T02640240=
KPTB 160255Z AUTO 00000KT 10SM CLR 26/24 A2990 RMK AO2 T02630240=
KPTB 160315Z AUTO 00000KT 10SM CLR 26/24 A2990 RMK AO2 T02610239=
KPTB 160335Z AUTO 21003KT 10SM CLR 27/23 A2990 RMK AO2 T02670231=
KPTB 160355Z AUTO 20003KT 10SM CLR 27/23 A2990 RMK AO2 T02690227=
KPTB 160415Z AUTO 00000KT 10SM CLR 27/23 A2990 RMK AO2 T02660226=
KPTB 160435Z AUTO 00000KT 10SM CLR 26/22 A2990 RMK AO2 T02640224=
KPTB 160455Z AUTO 00000KT 10SM CLR 26/22 A2990 RMK AO2 T02580223 403470226=
KPTB 160515Z AUTO 21003KT 10SM CLR 26/22 A2990 RMK AO2 T02560221=
KPTB 160535Z AUTO 20003KT 10SM CLR 26/22 A2990 RMK AO2 T02560219=
KPTB 160555Z AUTO 00000KT 10SM CLR 26/22 A2990 RMK AO2 T02550216 10293 20255=
KPTB 160615Z AUTO 20003KT 10SM CLR 25/22 A2989 RMK AO2 T02520215=
KPTB 160635Z AUTO 00000KT 10SM CLR 25/22 A2989 RMK AO2 T02500215=
KPTB 160655Z AUTO 20003KT 10SM CLR 25/21 A2990 RMK AO2 T02470213=
KPTB 160715Z AUTO 00000KT 10SM CLR 25/21 A2990 RMK AO2 T02460212=
KPTB 160735Z AUTO 21003KT 7SM CLR 25/21 A2990 RMK AO2 T02450211=
KPTB 160755Z AUTO 00000KT 10SM CLR 24/21 A2990 RMK AO2 T02430211=
KPTB 160815Z AUTO 22004KT 10SM CLR 24/21 A2990 RMK AO2 T02420211=
KPTB 160835Z AUTO 21003KT 10SM CLR 24/21 A2991 RMK AO2 T02400211=
KPTB 160855Z AUTO 21004KT 10SM CLR 24/21 A2991 RMK AO2 T02400212=
KPTB 160915Z AUTO 21004KT 10SM CLR 24/21 A2991 RMK AO2 T02420211=
KPTB 160935Z AUTO 22004KT 10SM CLR 25/21 A2991 RMK AO2 T02450211=
KPTB 160955Z AUTO 20004KT 7SM CLR 24/21 A2991 RMK AO2 T02410212=
KPTB 161015Z AUTO 00000KT 10SM CLR 24/21 A2991 RMK AO2 T02400213=
KPTB 161035Z AUTO 00000KT 10SM CLR 24/22 A2991 RMK AO2 T02400215=
KPTB 161055Z AUTO 00000KT 10SM CLR 24/22 A2992 RMK AO2 T02420216=
KPTB 161115Z AUTO 00000KT 10SM CLR 25/22 A2992 RMK AO2 T02470216=
KPTB 161135Z AUTO 00000KT 10SM CLR 25/22 A2992 RMK AO2 T02510220=
KPTB 161155Z AUTO 22003KT 10SM CLR 26/22 A2993 RMK AO2 T02610219 10261 20238=
KPTB 161215Z AUTO 00000KT 7SM CLR 27/22 A2993 RMK AO2 T02680220=
KPTB 161235Z AUTO 00000KT 7SM CLR 28/22 A2994 RMK AO2 T02750223=
KPTB 161255Z AUTO 22006KT 7SM CLR 28/22 A2994 RMK AO2 T02820220=
KPTB 161315Z AUTO 23003KT 7SM CLR 29/23 A2993 RMK AO2 T02880225=
KPTB 161335Z AUTO 23005KT 7SM CLR 29/23 A2993 RMK AO2 T02920225=
KPTB 161355Z AUTO 22003KT 7SM CLR 29/23 A2993 RMK AO2 T02940230=
KPTB 161415Z AUTO 21005KT 7SM CLR 30/23 A2993 RMK AO2 T02960229=
KPTB 161435Z AUTO 21004KT 7SM CLR 30/23 A2993 RMK AO2 T03030232=
KPTB 161455Z AUTO 00000KT 10SM CLR 30/23 A2993 RMK AO2 T03040233=
KPTB 161515Z AUTO 22006KT 7SM CLR 31/24 A2993 RMK AO2 T03080237=
KPTB 161535Z AUTO 21006KT 170V230 7SM CLR 31/24 A2993 RMK AO2 T03070236=
KPTB 161555Z AUTO 22004KT 7SM CLR 31/24 A2993 RMK AO2 T03140241=
KPTB 161615Z AUTO 19004KT 10SM CLR 31/24 A2993 RMK AO2 T03100238=
KPTB 161635Z AUTO 20005KT 10SM CLR 33/25 A2992 RMK AO2 T03270248=
KPTB 161655Z AUTO 22005KT 10SM CLR 33/24 A2992 RMK AO2 T03300241=
KPTB 161715Z AUTO 22005KT 10SM CLR 32/25 A2992 RMK AO2 T03230245=
KPTB 161735Z AUTO 22006KT 7SM CLR 33/25 A2991 RMK AO2 T03320245=
KPTB 161755Z AUTO 18004KT 7SM CLR 34/25 A2990 RMK AO2 T03350250 10337 20262=
KPTB 161815Z AUTO 19005KT 10SM CLR 34/24 A2990 RMK AO2 T03380239=
KPTB 161835Z AUTO 20004KT 7SM CLR 34/24 A2989 RMK AO2 T03400243=
KPTB 161855Z AUTO 20004KT 10SM CLR 34/24 A2988 RMK AO2 T03410243=

Decoded Surface Observations


The weather observed at PETERSBURG, VA (KPTB) at 02:55 PM EDT was:
  The skies were clear.
  Temperature: 93F ( 34C)  Dewpoint:  70F ( 21C)  Relative Humidity:  47%
  Winds from the SW (210 degs) at  5 mph.
  Altimeter:29.95 inches of mercury.
  The prevailing visibility was 10 miles.

The weather observed at PETERSBURG, VA (KPTB) at 03:15 PM EDT was:
  The skies were clear.
  Temperature: 93F ( 34C)  Dewpoint:  70F ( 21C)  Relative Humidity:  47%
  Winds from the SW (220 degs) at  3 mph.
  Altimeter:29.95 inches of mercury.
  The prevailing visibility was 7 miles.

The weather observed at PETERSBURG, VA (KPTB) at 03:35 PM EDT was:
  The skies were clear.
  Temperature: 93F ( 34C)  Dewpoint:  70F ( 21C)  Relative Humidity:  47%
  Winds from the S  (190 degs) at  5 mph.
  Altimeter:29.94 inches of mercury.
  The prevailing visibility was 10 miles.

The weather observed at PETERSBURG, VA (KPTB) at 03:55 PM EDT was:
  The skies were clear.
  Temperature: 93F ( 34C)  Dewpoint:  68F ( 20C)  Relative Humidity:  44%
  Winds from the SW (210 degs) at  6 mph.
  Altimeter:29.94 inches of mercury.
  The prevailing visibility was 7 miles.

The weather observed at PETERSBURG, VA (KPTB) at 04:15 PM EDT was:
  The skies were clear.
  Temperature: 93F ( 34C)  Dewpoint:  70F ( 21C)  Relative Humidity:  47%
  Winds from the SSW(200 degs) at  6 mph.
  Altimeter:29.93 inches of mercury.
  The prevailing visibility was 10 miles.

The weather observed at PETERSBURG, VA (KPTB) at 04:35 PM EDT was:
  The skies were clear.
  Temperature: 93F ( 34C)  Dewpoint:  72F ( 22C)  Relative Humidity:  50%
  Winds from the SSW(200 degs) at  3 mph.
  Altimeter:29.92 inches of mercury.
  The prevailing visibility was 10 miles.

The weather observed at PETERSBURG, VA (KPTB) at 04:55 PM EDT was:
  The skies were clear.
  Temperature: 93F ( 34C)  Dewpoint:  68F ( 20C)  Relative Humidity:  44%
  Winds from the SSW(200 degs) at  6 mph.
  Altimeter:29.91 inches of mercury.
  The prevailing visibility was 10 miles.

The weather observed at PETERSBURG, VA (KPTB) at 05:15 PM EDT was:
  The skies were clear.
  Temperature: 93F ( 34C)  Dewpoint:  70F ( 21C)  Relative Humidity:  47%
  Winds from the SW (220 degs) at  7 mph.
  Altimeter:29.90 inches of mercury.
  The prevailing visibility was 10 miles.

The weather observed at PETERSBURG, VA (KPTB) at 05:35 PM EDT was:
  The skies were clear.
  Temperature: 93F ( 34C)  Dewpoint:  70F ( 21C)  Relative Humidity:  47%
  Winds from the SW (220 degs) at  5 mph.
  Altimeter:29.91 inches of mercury.
  The prevailing visibility was 7 miles.

The weather observed at PETERSBURG, VA (KPTB) at 05:55 PM EDT was:
  The skies were clear.
  Temperature: 93F ( 34C)  Dewpoint:  72F ( 22C)  Relative Humidity:  50%
  Winds from the SW (220 degs) at  3 mph.
  Altimeter:29.90 inches of mercury.
  The prevailing visibility was 10 miles.

The weather observed at PETERSBURG, VA (KPTB) at 06:15 PM EDT was:
  The skies were clear.
  Temperature: 93F ( 34C)  Dewpoint:  72F ( 22C)  Relative Humidity:  50%
  Winds from the SW (210 degs) at  3 mph.
  Altimeter:29.90 inches of mercury.
  The prevailing visibility was 10 miles.

The weather observed at PETERSBURG, VA (KPTB) at 06:35 PM EDT was:
  The skies were clear.
  Temperature: 91F ( 33C)  Dewpoint:  72F ( 22C)  Relative Humidity:  52%
  Winds from the CLM(CLM degs) at  0 mph.
  Altimeter:29.90 inches of mercury.
  The prevailing visibility was 10 miles.

The weather observed at PETERSBURG, VA (KPTB) at 06:55 PM EDT was:
  The skies were clear.
  Temperature: 91F ( 33C)  Dewpoint:  73F ( 23C)  Relative Humidity:  56%
  Winds from the CLM(CLM degs) at  0 mph.
  Altimeter:29.89 inches of mercury.
  The prevailing visibility was 10 miles.

The weather observed at PETERSBURG, VA (KPTB) at 07:15 PM EDT was:
  The skies were clear.
  Temperature: 90F ( 32C)  Dewpoint:  77F ( 25C)  Relative Humidity:  67%
  Winds from the CLM(CLM degs) at  0 mph.
  Altimeter:29.89 inches of mercury.
  The prevailing visibility was 7 miles.

The weather observed at PETERSBURG, VA (KPTB) at 07:35 PM EDT was:
  The skies were clear.
  Temperature: 86F ( 30C)  Dewpoint:  77F ( 25C)  Relative Humidity:  75%
  Winds from the CLM(CLM degs) at  0 mph.
  Altimeter:29.90 inches of mercury.
  The prevailing visibility was 10 miles.

The weather observed at PETERSBURG, VA (KPTB) at 07:55 PM EDT was:
  The skies were clear.
  Temperature: 85F ( 30C)  Dewpoint:  77F ( 25C)  Relative Humidity:  76%
  Winds from the CLM(CLM degs) at  0 mph.
  Altimeter:29.90 inches of mercury.
  The prevailing visibility was 10 miles.
  The maximum temperature in the past 6 hours was  94F.

The weather observed at PETERSBURG, VA (KPTB) at 08:15 PM EDT was:
  The skies were clear.
  Temperature: 84F ( 29C)  Dewpoint:  77F ( 25C)  Relative Humidity:  79%
  Winds from the CLM(CLM degs) at  0 mph.
  Altimeter:29.91 inches of mercury.
  The prevailing visibility was 7 miles.

The weather observed at PETERSBURG, VA (KPTB) at 08:35 PM EDT was:
  The skies were clear.
  Temperature: 82F ( 28C)  Dewpoint:  77F ( 25C)  Relative Humidity:  84%
  Winds from the CLM(CLM degs) at  0 mph.
  Altimeter:29.91 inches of mercury.
  The prevailing visibility was 7 miles.

The weather observed at PETERSBURG, VA (KPTB) at 08:55 PM EDT was:
  The skies were clear.
  Temperature: 82F ( 28C)  Dewpoint:  77F ( 25C)  Relative Humidity:  84%
  Winds from the CLM(CLM degs) at  0 mph.
  Altimeter:29.91 inches of mercury.
  The prevailing visibility was 7 miles.

The weather observed at PETERSBURG, VA (KPTB) at 09:15 PM EDT was:
  The skies were clear.
  Temperature: 82F ( 28C)  Dewpoint:  75F ( 24C)  Relative Humidity:  79%
  Winds from the CLM(CLM degs) at  0 mph.
  Altimeter:29.91 inches of mercury.
  The prevailing visibility was 7 miles.

The weather observed at PETERSBURG, VA (KPTB) at 09:35 PM EDT was:
  The skies were clear.
  Temperature: 82F ( 28C)  Dewpoint:  75F ( 24C)  Relative Humidity:  79%
  Winds from the CLM(CLM degs) at  0 mph.
  Altimeter:29.91 inches of mercury.
  The prevailing visibility was 10 miles.

The weather observed at PETERSBURG, VA (KPTB) at 09:55 PM EDT was:
  The skies were clear.
  Temperature: 81F ( 27C)  Dewpoint:  75F ( 24C)  Relative Humidity:  84%
  Winds from the CLM(CLM degs) at  0 mph.
  Altimeter:29.92 inches of mercury.
  The prevailing visibility was 10 miles.

The weather observed at PETERSBURG, VA (KPTB) at 10:15 PM EDT was:
  The skies were clear.
  Temperature: 79F ( 26C)  Dewpoint:  75F ( 24C)  Relative Humidity:  89%
  Winds from the CLM(CLM degs) at  0 mph.
  Altimeter:29.92 inches of mercury.
  The prevailing visibility was 10 miles.

The weather observed at PETERSBURG, VA (KPTB) at 10:35 PM EDT was:
  The skies were clear.
  Temperature: 79F ( 26C)  Dewpoint:  75F ( 24C)  Relative Humidity:  89%
  Winds from the CLM(CLM degs) at  0 mph.
  Altimeter:29.91 inches of mercury.
  The prevailing visibility was 10 miles.

The weather observed at PETERSBURG, VA (KPTB) at 10:55 PM EDT was:
  The skies were clear.
  Temperature: 79F ( 26C)  Dewpoint:  75F ( 24C)  Relative Humidity:  89%
  Winds from the CLM(CLM degs) at  0 mph.
  Altimeter:29.90 inches of mercury.
  The prevailing visibility was 10 miles.

The weather observed at PETERSBURG, VA (KPTB) at 11:15 PM EDT was:
  The skies were clear.
  Temperature: 79F ( 26C)  Dewpoint:  75F ( 24C)  Relative Humidity:  89%
  Winds from the CLM(CLM degs) at  0 mph.
  Altimeter:29.90 inches of mercury.
  The prevailing visibility was 10 miles.

The weather observed at PETERSBURG, VA (KPTB) at 11:35 PM EDT was:
  The skies were clear.
  Temperature: 81F ( 27C)  Dewpoint:  73F ( 23C)  Relative Humidity:  79%
  Winds from the SW (210 degs) at  3 mph.
  Altimeter:29.90 inches of mercury.
  The prevailing visibility was 10 miles.

The weather observed at PETERSBURG, VA (KPTB) at 11:55 PM EDT was:
  The skies were clear.
  Temperature: 81F ( 27C)  Dewpoint:  73F ( 23C)  Relative Humidity:  79%
  Winds from the SSW(200 degs) at  3 mph.
  Altimeter:29.90 inches of mercury.
  The prevailing visibility was 10 miles.

The weather observed at PETERSBURG, VA (KPTB) at 12:15 AM EDT was:
  The skies were clear.
  Temperature: 81F ( 27C)  Dewpoint:  73F ( 23C)  Relative Humidity:  79%
  Winds from the CLM(CLM degs) at  0 mph.
  Altimeter:29.90 inches of mercury.
  The prevailing visibility was 10 miles.

The weather observed at PETERSBURG, VA (KPTB) at 12:35 AM EDT was:
  The skies were clear.
  Temperature: 79F ( 26C)  Dewpoint:  72F ( 22C)  Relative Humidity:  79%
  Winds from the CLM(CLM degs) at  0 mph.
  Altimeter:29.90 inches of mercury.
  The prevailing visibility was 10 miles.

The weather observed at PETERSBURG, VA (KPTB) at 12:55 AM EDT was:
  The skies were clear.
  Temperature: 78F ( 26C)  Dewpoint:  72F ( 22C)  Relative Humidity:  81%
  Winds from the CLM(CLM degs) at  0 mph.
  Altimeter:29.90 inches of mercury.
  The prevailing visibility was 10 miles.

The weather observed at PETERSBURG, VA (KPTB) at 01:15 AM EDT was:
  The skies were clear.
  Temperature: 79F ( 26C)  Dewpoint:  72F ( 22C)  Relative Humidity:  79%
  Winds from the SW (210 degs) at  3 mph.
  Altimeter:29.90 inches of mercury.
  The prevailing visibility was 10 miles.

The weather observed at PETERSBURG, VA (KPTB) at 01:35 AM EDT was:
  The skies were clear.
  Temperature: 79F ( 26C)  Dewpoint:  72F ( 22C)  Relative Humidity:  79%
  Winds from the SSW(200 degs) at  3 mph.
  Altimeter:29.90 inches of mercury.
  The prevailing visibility was 10 miles.

The weather observed at PETERSBURG, VA (KPTB) at 01:55 AM EDT was:
  The skies were clear.
  Temperature: 78F ( 26C)  Dewpoint:  71F ( 22C)  Relative Humidity:  79%
  Winds from the CLM(CLM degs) at  0 mph.
  Altimeter:29.90 inches of mercury.
  The prevailing visibility was 10 miles.
  The maximum temperature in the past 6 hours was  85F.

The weather observed at PETERSBURG, VA (KPTB) at 02:15 AM EDT was:
  The skies were clear.
  Temperature: 77F ( 25C)  Dewpoint:  72F ( 22C)  Relative Humidity:  83%
  Winds from the SSW(200 degs) at  3 mph.
  Altimeter:29.89 inches of mercury.
  The prevailing visibility was 10 miles.

The weather observed at PETERSBURG, VA (KPTB) at 02:35 AM EDT was:
  The skies were clear.
  Temperature: 77F ( 25C)  Dewpoint:  72F ( 22C)  Relative Humidity:  83%
  Winds from the CLM(CLM degs) at  0 mph.
  Altimeter:29.89 inches of mercury.
  The prevailing visibility was 10 miles.

The weather observed at PETERSBURG, VA (KPTB) at 02:55 AM EDT was:
  The skies were clear.
  Temperature: 77F ( 25C)  Dewpoint:  70F ( 21C)  Relative Humidity:  78%
  Winds from the SSW(200 degs) at  3 mph.
  Altimeter:29.90 inches of mercury.
  The prevailing visibility was 10 miles.

The weather observed at PETERSBURG, VA (KPTB) at 03:15 AM EDT was:
  The skies were clear.
  Temperature: 77F ( 25C)  Dewpoint:  70F ( 21C)  Relative Humidity:  78%
  Winds from the CLM(CLM degs) at  0 mph.
  Altimeter:29.90 inches of mercury.
  The prevailing visibility was 10 miles.

The weather observed at PETERSBURG, VA (KPTB) at 03:35 AM EDT was:
  The skies were clear.
  Temperature: 77F ( 25C)  Dewpoint:  70F ( 21C)  Relative Humidity:  78%
  Winds from the SW (210 degs) at  3 mph.
  Altimeter:29.90 inches of mercury.
  The prevailing visibility was 7 miles.

The weather observed at PETERSBURG, VA (KPTB) at 03:55 AM EDT was:
  The skies were clear.
  Temperature: 75F ( 24C)  Dewpoint:  70F ( 21C)  Relative Humidity:  83%
  Winds from the CLM(CLM degs) at  0 mph.
  Altimeter:29.90 inches of mercury.
  The prevailing visibility was 10 miles.

The weather observed at PETERSBURG, VA (KPTB) at 04:15 AM EDT was:
  The skies were clear.
  Temperature: 75F ( 24C)  Dewpoint:  70F ( 21C)  Relative Humidity:  83%
  Winds from the SW (220 degs) at  5 mph.
  Altimeter:29.90 inches of mercury.
  The prevailing visibility was 10 miles.

The weather observed at PETERSBURG, VA (KPTB) at 04:35 AM EDT was:
  The skies were clear.
  Temperature: 75F ( 24C)  Dewpoint:  70F ( 21C)  Relative Humidity:  83%
  Winds from the SW (210 degs) at  3 mph.
  Altimeter:29.91 inches of mercury.
  The prevailing visibility was 10 miles.

The weather observed at PETERSBURG, VA (KPTB) at 04:55 AM EDT was:
  The skies were clear.
  Temperature: 75F ( 24C)  Dewpoint:  70F ( 21C)  Relative Humidity:  83%
  Winds from the SW (210 degs) at  5 mph.
  Altimeter:29.91 inches of mercury.
  The prevailing visibility was 10 miles.

The weather observed at PETERSBURG, VA (KPTB) at 05:15 AM EDT was:
  The skies were clear.
  Temperature: 75F ( 24C)  Dewpoint:  70F ( 21C)  Relative Humidity:  83%
  Winds from the SW (210 degs) at  5 mph.
  Altimeter:29.91 inches of mercury.
  The prevailing visibility was 10 miles.

The weather observed at PETERSBURG, VA (KPTB) at 05:35 AM EDT was:
  The skies were clear.
  Temperature: 77F ( 25C)  Dewpoint:  70F ( 21C)  Relative Humidity:  78%
  Winds from the SW (220 degs) at  5 mph.
  Altimeter:29.91 inches of mercury.
  The prevailing visibility was 10 miles.

The weather observed at PETERSBURG, VA (KPTB) at 05:55 AM EDT was:
  The skies were clear.
  Temperature: 75F ( 24C)  Dewpoint:  70F ( 21C)  Relative Humidity:  83%
  Winds from the SSW(200 degs) at  5 mph.
  Altimeter:29.91 inches of mercury.
  The prevailing visibility was 7 miles.

The weather observed at PETERSBURG, VA (KPTB) at 06:15 AM EDT was:
  The skies were clear.
  Temperature: 75F ( 24C)  Dewpoint:  70F ( 21C)  Relative Humidity:  83%
  Winds from the CLM(CLM degs) at  0 mph.
  Altimeter:29.91 inches of mercury.
  The prevailing visibility was 10 miles.

The weather observed at PETERSBURG, VA (KPTB) at 06:35 AM EDT was:
  The skies were clear.
  Temperature: 75F ( 24C)  Dewpoint:  72F ( 22C)  Relative Humidity:  89%
  Winds from the CLM(CLM degs) at  0 mph.
  Altimeter:29.91 inches of mercury.
  The prevailing visibility was 10 miles.

The weather observed at PETERSBURG, VA (KPTB) at 06:55 AM EDT was:
  The skies were clear.
  Temperature: 75F ( 24C)  Dewpoint:  72F ( 22C)  Relative Humidity:  89%
  Winds from the CLM(CLM degs) at  0 mph.
  Altimeter:29.92 inches of mercury.
  The prevailing visibility was 10 miles.

The weather observed at PETERSBURG, VA (KPTB) at 07:15 AM EDT was:
  The skies were clear.
  Temperature: 77F ( 25C)  Dewpoint:  72F ( 22C)  Relative Humidity:  83%
  Winds from the CLM(CLM degs) at  0 mph.
  Altimeter:29.92 inches of mercury.
  The prevailing visibility was 10 miles.

The weather observed at PETERSBURG, VA (KPTB) at 07:35 AM EDT was:
  The skies were clear.
  Temperature: 77F ( 25C)  Dewpoint:  72F ( 22C)  Relative Humidity:  83%
  Winds from the CLM(CLM degs) at  0 mph.
  Altimeter:29.92 inches of mercury.
  The prevailing visibility was 10 miles.

The weather observed at PETERSBURG, VA (KPTB) at 07:55 AM EDT was:
  The skies were clear.
  Temperature: 79F ( 26C)  Dewpoint:  71F ( 22C)  Relative Humidity:  78%
  Winds from the SW (220 degs) at  3 mph.
  Altimeter:29.93 inches of mercury.
  The prevailing visibility was 10 miles.
  The maximum temperature in the past 6 hours was  79F.

The weather observed at PETERSBURG, VA (KPTB) at 08:15 AM EDT was:
  The skies were clear.
  Temperature: 81F ( 27C)  Dewpoint:  72F ( 22C)  Relative Humidity:  74%
  Winds from the CLM(CLM degs) at  0 mph.
  Altimeter:29.93 inches of mercury.
  The prevailing visibility was 7 miles.

The weather observed at PETERSBURG, VA (KPTB) at 08:35 AM EDT was:
  The skies were clear.
  Temperature: 82F ( 28C)  Dewpoint:  72F ( 22C)  Relative Humidity:  70%
  Winds from the CLM(CLM degs) at  0 mph.
  Altimeter:29.94 inches of mercury.
  The prevailing visibility was 7 miles.

The weather observed at PETERSBURG, VA (KPTB) at 08:55 AM EDT was:
  The skies were clear.
  Temperature: 82F ( 28C)  Dewpoint:  72F ( 22C)  Relative Humidity:  70%
  Winds from the SW (220 degs) at  7 mph.
  Altimeter:29.94 inches of mercury.
  The prevailing visibility was 7 miles.

The weather observed at PETERSBURG, VA (KPTB) at 09:15 AM EDT was:
  The skies were clear.
  Temperature: 84F ( 29C)  Dewpoint:  73F ( 23C)  Relative Humidity:  70%
  Winds from the SW (230 degs) at  3 mph.
  Altimeter:29.93 inches of mercury.
  The prevailing visibility was 7 miles.

The weather observed at PETERSBURG, VA (KPTB) at 09:35 AM EDT was:
  The skies were clear.
  Temperature: 84F ( 29C)  Dewpoint:  73F ( 23C)  Relative Humidity:  70%
  Winds from the SW (230 degs) at  6 mph.
  Altimeter:29.93 inches of mercury.
  The prevailing visibility was 7 miles.

The weather observed at PETERSBURG, VA (KPTB) at 09:55 AM EDT was:
  The skies were clear.
  Temperature: 84F ( 29C)  Dewpoint:  73F ( 23C)  Relative Humidity:  70%
  Winds from the SW (220 degs) at  3 mph.
  Altimeter:29.93 inches of mercury.
  The prevailing visibility was 7 miles.

The weather observed at PETERSBURG, VA (KPTB) at 10:15 AM EDT was:
  The skies were clear.
  Temperature: 86F ( 30C)  Dewpoint:  73F ( 23C)  Relative Humidity:  66%
  Winds from the SW (210 degs) at  6 mph.
  Altimeter:29.93 inches of mercury.
  The prevailing visibility was 7 miles.

The weather observed at PETERSBURG, VA (KPTB) at 10:35 AM EDT was:
  The skies were clear.
  Temperature: 86F ( 30C)  Dewpoint:  73F ( 23C)  Relative Humidity:  66%
  Winds from the SW (210 degs) at  5 mph.
  Altimeter:29.93 inches of mercury.
  The prevailing visibility was 7 miles.

The weather observed at PETERSBURG, VA (KPTB) at 10:55 AM EDT was:
  The skies were clear.
  Temperature: 86F ( 30C)  Dewpoint:  73F ( 23C)  Relative Humidity:  66%
  Winds from the CLM(CLM degs) at  0 mph.
  Altimeter:29.93 inches of mercury.
  The prevailing visibility was 10 miles.

The weather observed at PETERSBURG, VA (KPTB) at 11:15 AM EDT was:
  The skies were clear.
  Temperature: 88F ( 31C)  Dewpoint:  75F ( 24C)  Relative Humidity:  66%
  Winds from the SW (220 degs) at  7 mph.
  Altimeter:29.93 inches of mercury.
  The prevailing visibility was 7 miles.

The weather observed at PETERSBURG, VA (KPTB) at 11:35 AM EDT was:
  The skies were clear.
  Temperature: 88F ( 31C)  Dewpoint:  75F ( 24C)  Relative Humidity:  66%
  Winds from the SW (210 degs) at  7 mph.
  Altimeter:29.93 inches of mercury.
  The prevailing visibility was 7 miles.

The weather observed at PETERSBURG, VA (KPTB) at 11:55 AM EDT was:
  The skies were clear.
  Temperature: 88F ( 31C)  Dewpoint:  75F ( 24C)  Relative Humidity:  66%
  Winds from the SW (220 degs) at  5 mph.
  Altimeter:29.93 inches of mercury.
  The prevailing visibility was 7 miles.

The weather observed at PETERSBURG, VA (KPTB) at 12:15 PM EDT was:
  The skies were clear.
  Temperature: 88F ( 31C)  Dewpoint:  75F ( 24C)  Relative Humidity:  66%
  Winds from the S  (190 degs) at  5 mph.
  Altimeter:29.93 inches of mercury.
  The prevailing visibility was 10 miles.

The weather observed at PETERSBURG, VA (KPTB) at 12:35 PM EDT was:
  The skies were clear.
  Temperature: 91F ( 33C)  Dewpoint:  77F ( 25C)  Relative Humidity:  63%
  Winds from the SSW(200 degs) at  6 mph.
  Altimeter:29.92 inches of mercury.
  The prevailing visibility was 10 miles.

The weather observed at PETERSBURG, VA (KPTB) at 12:55 PM EDT was:
  The skies were clear.
  Temperature: 91F ( 33C)  Dewpoint:  75F ( 24C)  Relative Humidity:  59%
  Winds from the SW (220 degs) at  6 mph.
  Altimeter:29.92 inches of mercury.
  The prevailing visibility was 10 miles.

The weather observed at PETERSBURG, VA (KPTB) at 01:15 PM EDT was:
  The skies were clear.
  Temperature: 90F ( 32C)  Dewpoint:  77F ( 25C)  Relative Humidity:  67%
  Winds from the SW (220 degs) at  6 mph.
  Altimeter:29.92 inches of mercury.
  The prevailing visibility was 10 miles.

The weather observed at PETERSBURG, VA (KPTB) at 01:35 PM EDT was:
  The skies were clear.
  Temperature: 91F ( 33C)  Dewpoint:  77F ( 25C)  Relative Humidity:  63%
  Winds from the SW (220 degs) at  7 mph.
  Altimeter:29.91 inches of mercury.
  The prevailing visibility was 7 miles.

The weather observed at PETERSBURG, VA (KPTB) at 01:55 PM EDT was:
  The skies were clear.
  Temperature: 92F ( 34C)  Dewpoint:  77F ( 25C)  Relative Humidity:  61%
  Winds from the S  (180 degs) at  5 mph.
  Altimeter:29.90 inches of mercury.
  The prevailing visibility was 7 miles.
  The maximum temperature in the past 6 hours was  93F.

The weather observed at PETERSBURG, VA (KPTB) at 02:15 PM EDT was:
  The skies were clear.
  Temperature: 93F ( 34C)  Dewpoint:  75F ( 24C)  Relative Humidity:  56%
  Winds from the S  (190 degs) at  6 mph.
  Altimeter:29.90 inches of mercury.
  The prevailing visibility was 10 miles.

The weather observed at PETERSBURG, VA (KPTB) at 02:35 PM EDT was:
  The skies were clear.
  Temperature: 93F ( 34C)  Dewpoint:  75F ( 24C)  Relative Humidity:  56%
  Winds from the SSW(200 degs) at  5 mph.
  Altimeter:29.89 inches of mercury.
  The prevailing visibility was 7 miles.

The weather observed at PETERSBURG, VA (KPTB) at 02:55 PM EDT was:
  The skies were clear.
  Temperature: 93F ( 34C)  Dewpoint:  75F ( 24C)  Relative Humidity:  56%
  Winds from the SSW(200 degs) at  5 mph.
  Altimeter:29.88 inches of mercury.
  The prevailing visibility was 10 miles.

Short Range Forecast

Sorry no data found for ptb
Make sure ptb is a valid station
You might need to specify a nearby major city
Try Again

Zone Forecast

VAZ080-170200-
Dinwiddie-
Including the city of Reams
245 PM EDT Tue Jul 16 2024

...HEAT ADVISORY REMAINS IN EFFECT UNTIL 8 PM EDT THIS EVENING...
...HEAT ADVISORY IN EFFECT FROM 11 AM TO 8 PM EDT WEDNESDAY...

.THIS AFTERNOON...Mostly sunny with a slight chance of showers
and thunderstorms. Highs in the upper 90s. Southwest winds around
10 mph. Chance of rain 20 percent. Heat index values up to 108.
.TONIGHT...Partly cloudy. A slight chance of showers and
thunderstorms in the evening. Humid with lows in the mid 70s.
Southwest winds 5 to 10 mph. Chance of rain 20 percent. Heat
index values up to 105 early in the evening.
.WEDNESDAY...Partly sunny. A chance of showers and thunderstorms
in the afternoon. Hot with highs in the mid 90s. Southwest winds
5 to 10 mph. Gusts up to 20 mph in the afternoon. Chance of rain
50 percent. Heat index values up to 107.
.WEDNESDAY NIGHT...Mostly cloudy. Showers and thunderstorms
likely, mainly in the evening. Humid with lows in the lower 70s.
Southwest winds 5 to 10 mph. Chance of rain 60 percent. Heat
index values up to 100 early in the evening.
.THURSDAY...Mostly cloudy. A chance of showers and thunderstorms
in the morning, then showers and thunderstorms likely in the
afternoon. Humid with highs in the upper 80s. West winds around
5 mph, becoming north in the afternoon. Chance of rain
70 percent.
.THURSDAY NIGHT...Mostly cloudy. Showers and thunderstorms
likely, mainly in the evening. Lows in the upper 60s. Chance of
rain 70 percent.
.FRIDAY...Mostly cloudy in the morning, then partly sunny with a
chance of showers and thunderstorms in the afternoon. Highs in
the lower 80s. Chance of rain 30 percent.
.FRIDAY NIGHT...A chance of thunderstorms in the evening. Mostly
cloudy with a chance of showers. Lows in the upper 60s. Chance of
rain 40 percent.
.SATURDAY...Mostly cloudy with a chance of showers. A chance of
thunderstorms in the afternoon. Highs in the mid 80s. Chance of
rain 50 percent.
.SATURDAY NIGHT...Mostly cloudy with a chance of showers and
thunderstorms. Lows around 70. Chance of rain 50 percent.
.SUNDAY...Mostly cloudy. A chance of showers and thunderstorms in
the afternoon. Highs in the upper 80s. Chance of rain 40 percent.
.SUNDAY NIGHT...Mostly cloudy with a chance of showers and
thunderstorms. Lows around 70. Chance of rain 40 percent.
.MONDAY...Mostly cloudy with a chance of showers. A chance of
thunderstorms in the afternoon. Highs in the mid 80s. Chance of
rain 50 percent.


State Forecast

Sorry no data found for ptb
Make sure ptb is a valid station
You might need to specify a nearby major city
Try Again

State Forecast Discussion

Sorry no data found for ptb
Make sure ptb is a valid station
You might need to specify a nearby major city
Try Again

GFS Short-Range Model Output Statistics (MOS) Forecast

KPTB   GFS MOS GUIDANCE    7/16/2024  1200 UTC
DT /JULY 16/JULY 17                /JULY 18                /JULY 19
HR   18 21 00 03 06 09 12 15 18 21 00 03 06 09 12 15 18 21 00 06 12
N/X                    77          97          73          85    67
TMP  96 98 89 82 81 79 82 90 95 92 84 79 76 74 76 78 82 82 76 69 72
DPT  68 67 71 71 72 72 73 72 71 71 73 71 71 71 72 71 70 70 72 67 66
CLD  FW SC SC SC SC SC BK SC BK BK OV OV OV OV OV OV OV OV OV OV OV
WDR  22 22 20 21 21 21 21 22 22 21 22 25 23 23 34 02 02 03 05 00 01
WSP  05 06 03 02 02 02 03 07 09 09 04 03 03 01 02 02 04 03 02 00 05
P06         1     5    11     5    48    42    25    32    43 30 13
P12                    11          49          56          60    36
Q06         0     0     0     0     2     1     0     1     1  0  0
Q12                     0           1           1           2     1
T06     26/22 16/ 9  3/ 1  4/ 3 47/29 24/ 6 12/ 1 14/ 1 29/15  4/ 0
T12           35/22        5/ 4       54/29       20/ 3    33/15
CIG   8  8  8  8  8  8  8  8  8  8  7  7  7  2  3  4  6  6  7  7  7
VIS   7  7  7  7  7  7  7  7  7  7  7  7  5  7  7  7  7  7  7  5  7
OBV   N  N  N  N  N  N  N  N  N  N  N  N BR  N  N  N  N  N  N BR  N

GFS Long-Range Model Output Statistics (MOS) Forecast

KPTB   GFSX MOS GUIDANCE   7/16/2024  1200 UTC
FHR  24  36| 48  60| 72  84| 96 108|120 132|144 156|168 180|192
     WED 17| THU 18| FRI 19| SAT 20| SUN 21| MON 22| TUE 23|WED CLIMO
N/X  77  97| 73  85| 67  86| 67  86| 70  88| 70  89| 70  89| 69 66 89
TMP  82  84| 76  76| 72  77| 72  76| 75  78| 75  79| 75  79| 75
DPT  73  73| 72  72| 66  68| 68  71| 71  72| 71  72| 70  72| 70
CLD  PC  OV| OV  OV| OV  PC| OV  OV| OV  OV| OV  OV| OV  PC| PC
WND   3   9|  4   4|  5   5|  2   4|  1   5|  2   5|  2   6|  3
P12  11  49| 56  60| 36  23| 16  44| 31  42| 39  39| 35  35| 26999999
P24      49|     72|     44|     44|     54|     59|     58|      999
Q12   0   1|  1   2|  1   0|  0   1|  0   2|  2   3|       |
Q24       1|      3|      0|      1|      1|      4|       |
T12  16  47| 26  34| 22  17|  7  29| 19  39| 26  37| 23  34| 19
T24        | 48    | 38    | 17    | 36    | 49    | 40    | 34

NGM Model Output Statistics (MOS) Forecast

Climatological Summary

Sorry no data found for ptb
Make sure ptb is a valid station
You might need to specify a nearby major city
Try Again

Watch and Warning Statment

Sorry no data found for ptb
Make sure ptb is a valid station
You might need to specify a nearby major city
or it could be THERE ARE NO WATCHES OR WARNINGS for ptb
Try Again

Park/Ski Recreation Report/Forecast

Sorry no data found for ptb
Make sure ptb is a valid station
You might need to specify a nearby major city
Try Again